Terminal Aerodrome Forecast
Issued by NWS Shreveport, LA

Home | Current Version | Previous Version | Text Only | Print | Product List | Glossary On
Versions: 1 2 3 4 5 6 7 8 9 10 11 12 13 14
000
FTUS44 KSHV 041740
TAFTYR
TAF
KTYR 041740Z 0418/0518 28011G17KT P6SM SKC
     FM042300 31010KT P6SM SCT045
     FM050100 32006KT P6SM SKC
     FM050600 VRB03KT P6SM SKC=

USA.gov is the U.S. government's official web portal to all federal, state and local government web resources and services.